Jeffersonville, Georgia
Current Conditions -  °F | °C
As of 11:58 PM on Saturday 20 Dec 2014 (Local Time) from KWRB Reporting Station
Haze Haze  
Wind Chill: 52°   Ceiling: 300
Heat Index: 52°   Visibility: 4mi
Dew Point: 51°   Wind: 6mph
Humidity: 96%   Direction: NA
Pressure: 30.16"   Gusts: NA
Location:  32.69°N, 83.35°W
Report Text: KWRB 210458Z AUTO VRB05KT 4SM R33/4500FT BR OVC003 11/10 A3016 RMK AO2 SLP216 T01090103 401230079
Loading
Personal Weather Stations






























Interactive Weather Map New forecast layout! Learn more

10-Day Weather Forecast

Advertisements
Track Severe Weather on mobile